createdAt,value
2019-03-03T00:02:29.190Z,99753.09
2019-03-03T00:08:00.668Z,99745.31
2019-03-03T00:10:30.019Z,99758.73
2019-03-03T00:12:59.363Z,99758.89
2019-03-03T00:15:28.708Z,99754.23
2019-03-03T00:21:00.210Z,99761.56
2019-03-03T00:23:29.556Z,99760.41
2019-03-03T00:25:58.903Z,99762.31
2019-03-03T00:28:28.252Z,99759.67
2019-03-03T00:30:57.596Z,99764.02
2019-03-03T00:33:26.924Z,99767.67
2019-03-03T00:35:56.270Z,99772.95
2019-03-03T00:38:44.369Z,99775.33
2019-03-03T00:47:37.372Z,99776.51
2019-03-03T00:50:26.315Z,99771.94
2019-03-03T00:53:15.102Z,99777.16
2019-03-03T00:55:52.744Z,99780.93
2019-03-03T00:58:41.593Z,99781.36
2019-03-03T01:01:29.592Z,99779.19
2019-03-03T01:04:17.811Z,99780.10
2019-03-03T01:07:05.898Z,99779.75
2019-03-03T01:09:40.227Z,99779.99
2019-03-03T01:12:28.320Z,99775.82
2019-03-03T01:15:16.418Z,99785.19
2019-03-03T01:18:04.574Z,99784.25
2019-03-03T01:20:52.760Z,99787.67
2019-03-03T01:23:40.768Z,99791.47
2019-03-03T01:26:10.087Z,99786.56
2019-03-03T01:28:39.521Z,99793.53
2019-03-03T01:31:08.030Z,99790.86
2019-03-03T01:33:36.663Z,99792.52
2019-03-03T01:36:06.008Z,99792.88
2019-03-03T01:38:35.331Z,99793.53
2019-03-03T01:41:06.295Z,99794.89
2019-03-03T01:43:53.893Z,99794.13
2019-03-03T01:46:23.232Z,99800.58
2019-03-03T01:48:52.573Z,99802.13
2019-03-03T01:51:21.912Z,99799.45
2019-03-03T01:53:51.246Z,99793.77
2019-03-03T01:56:31.730Z,99801.46
2019-03-03T01:59:00.351Z,99788.00
2019-03-03T02:01:29.694Z,99793.89
2019-03-03T02:03:59.039Z,99794.69
2019-03-03T02:06:28.368Z,99800.44
2019-03-03T02:08:57.728Z,99800.23
2019-03-03T02:11:27.159Z,99798.14
2019-03-03T02:13:56.493Z,99810.42
2019-03-03T02:16:25.926Z,99808.00
2019-03-03T02:18:55.268Z,99811.28
2019-03-03T02:21:24.602Z,99812.86
2019-03-03T02:23:53.241Z,99811.11
2019-03-03T02:26:21.872Z,99821.05
2019-03-03T02:28:51.202Z,99825.31
2019-03-03T02:31:20.561Z,99818.75
2019-03-03T02:33:49.895Z,99819.03
2019-03-03T02:36:19.222Z,99814.02
2019-03-03T02:38:48.548Z,99819.64
2019-03-03T02:41:17.868Z,99822.12
2019-03-03T02:43:46.615Z,99829.50
2019-03-03T02:46:15.940Z,99829.78
2019-03-03T02:48:45.279Z,99832.48
2019-03-03T02:51:13.908Z,99836.00
2019-03-03T02:53:42.548Z,99835.56
2019-03-03T02:56:11.890Z,99834.03
2019-03-03T02:58:41.227Z,99837.76
2019-03-03T03:01:30.011Z,99836.59
2019-03-03T03:07:00.122Z,99845.70
2019-03-03T03:09:38.497Z,99848.83
2019-03-03T03:12:13.323Z,99839.50
2019-03-03T03:15:01.435Z,99834.77
2019-03-03T03:17:49.435Z,99833.28
2019-03-03T03:20:37.584Z,99833.48
2019-03-03T03:23:26.356Z,99837.69
2019-03-03T03:26:15.150Z,99846.96
2019-03-03T03:29:03.119Z,99842.48
2019-03-03T03:31:51.324Z,99840.56
2019-03-03T03:34:24.896Z,99835.56
2019-03-03T03:37:13.032Z,99840.31
2019-03-03T03:39:48.141Z,99839.80
2019-03-03T03:45:38.533Z,99844.34
2019-03-03T03:48:26.726Z,99850.38
2019-03-03T03:51:14.715Z,99849.70
2019-03-03T03:53:54.543Z,99854.54
2019-03-03T03:59:45.912Z,99850.44
2019-03-03T04:02:34.226Z,99845.34
2019-03-03T04:08:10.533Z,99844.16
2019-03-03T04:10:59.330Z,99849.56
2019-03-03T04:13:47.425Z,99852.55
2019-03-03T04:16:35.535Z,99847.59
2019-03-03T04:19:24.328Z,99854.28
2019-03-03T04:22:04.971Z,99858.34
2019-03-03T04:24:48.851Z,99857.45
2019-03-03T04:27:33.019Z,99856.63
2019-03-03T04:30:21.888Z,99854.17
2019-03-03T04:33:01.811Z,99855.59
2019-03-03T04:35:49.905Z,99852.67
2019-03-03T04:38:30.424Z,99858.08
2019-03-03T04:41:18.532Z,99856.34
2019-03-03T04:44:07.329Z,99855.03
2019-03-03T04:46:41.270Z,99852.91
2019-03-03T04:49:30.069Z,99861.91
2019-03-03T04:52:18.148Z,99865.65
2019-03-03T04:55:06.233Z,99867.25
2019-03-03T04:57:54.381Z,99865.25
2019-03-03T05:00:41.579Z,99867.75
2019-03-03T05:03:26.782Z,99871.66
2019-03-03T05:06:14.893Z,99879.67
2019-03-03T05:09:02.872Z,99881.92
2019-03-03T05:12:32.872Z,99889.05
2019-03-03T05:15:20.959Z,99887.64
2019-03-03T05:17:55.603Z,99891.28
2019-03-03T05:20:24.231Z,99892.54
2019-03-03T05:22:52.876Z,99898.62
2019-03-03T05:25:22.971Z,99902.78
2019-03-03T05:28:10.640Z,99906.15
2019-03-03T05:30:39.988Z,99912.59
2019-03-03T05:33:09.347Z,99918.41
2019-03-03T05:35:38.734Z,99921.67
2019-03-03T05:38:08.066Z,99929.24
2019-03-03T05:40:37.394Z,99925.16
2019-03-03T05:43:06.729Z,99925.95
2019-03-03T05:45:35.354Z,99932.36
2019-03-03T05:48:04.682Z,99932.55
2019-03-03T05:50:34.070Z,99928.37
2019-03-03T05:53:03.454Z,99933.45
2019-03-03T05:55:32.784Z,99937.63
2019-03-03T05:58:02.119Z,99933.53
2019-03-03T06:00:31.464Z,99942.06
2019-03-03T06:03:00.083Z,99939.45
2019-03-03T06:05:29.419Z,99940.78
2019-03-03T06:07:58.757Z,99941.71
2019-03-03T06:10:28.107Z,99934.98
2019-03-03T06:12:56.722Z,99940.83
2019-03-03T06:15:25.348Z,99942.33
2019-03-03T06:17:54.683Z,99945.70
2019-03-03T06:20:24.016Z,99949.29
2019-03-03T06:22:53.381Z,99950.16
2019-03-03T06:25:22.727Z,99958.62
2019-03-03T06:27:52.058Z,99954.17
2019-03-03T06:30:21.412Z,99968.75
2019-03-03T06:32:50.749Z,99957.94
2019-03-03T06:35:19.576Z,99959.34
2019-03-03T06:37:48.124Z,99969.38
2019-03-03T06:40:17.452Z,99971.42
2019-03-03T06:42:46.799Z,99970.37
2019-03-03T06:45:16.165Z,99970.77
2019-03-03T06:47:45.506Z,99968.42
2019-03-03T06:50:14.939Z,99972.59
2019-03-03T06:52:44.264Z,99972.56
2019-03-03T06:55:13.613Z,99975.95
2019-03-03T06:57:42.937Z,99972.89
2019-03-03T07:00:31.666Z,99976.08
2019-03-03T07:03:01.028Z,99973.33
2019-03-03T07:05:30.366Z,99979.45
2019-03-03T07:07:58.910Z,99978.05
2019-03-03T07:10:28.248Z,99975.92
2019-03-03T07:12:57.577Z,99977.87
2019-03-03T07:15:26.906Z,99978.16
2019-03-03T07:17:56.295Z,99979.36
2019-03-03T07:20:25.652Z,99980.56
2019-03-03T07:22:54.991Z,99978.48
2019-03-03T07:25:24.318Z,99980.74
2019-03-03T07:27:53.157Z,99975.08
2019-03-03T07:30:21.688Z,99980.84
2019-03-03T07:33:10.559Z,99976.08
2019-03-03T07:35:39.957Z,99982.86
2019-03-03T07:38:09.322Z,99983.70
2019-03-03T07:40:50.494Z,99985.41
2019-03-03T07:43:19.239Z,99980.45
2019-03-03T07:45:49.008Z,99975.30
2019-03-03T07:48:17.777Z,99978.22
2019-03-03T07:50:47.951Z,99979.19
2019-03-03T07:53:17.312Z,99980.19
2019-03-03T07:55:45.949Z,99977.59
2019-03-03T07:58:14.492Z,99977.08
2019-03-03T08:00:43.832Z,99967.14
2019-03-03T08:03:13.163Z,99973.02
2019-03-03T08:05:42.517Z,99966.78
2019-03-03T08:08:11.856Z,99963.90
2019-03-03T08:10:41.198Z,99965.78
2019-03-03T08:13:10.832Z,99953.95
2019-03-03T08:15:40.225Z,99961.20
2019-03-03T08:18:09.561Z,99962.48
2019-03-03T08:20:38.907Z,99968.07
2019-03-03T08:23:07.445Z,99967.66
2019-03-03T08:25:36.074Z,99967.73
2019-03-03T08:28:04.804Z,99966.57
2019-03-03T08:30:34.240Z,99972.26
2019-03-03T08:33:03.692Z,99972.41
2019-03-03T08:35:33.026Z,99968.95
2019-03-03T08:38:02.363Z,99969.09
2019-03-03T08:40:31.719Z,99973.01
2019-03-03T08:43:20.525Z,99970.97
2019-03-03T08:46:09.380Z,99970.50
2019-03-03T08:48:52.092Z,99970.13
2019-03-03T08:51:40.972Z,99968.23
2019-03-03T08:54:29.782Z,99965.85
2019-03-03T08:57:18.584Z,99969.38
2019-03-03T09:00:06.899Z,99969.62
2019-03-03T09:02:55.758Z,99963.91
2019-03-03T09:05:44.561Z,99973.78
2019-03-03T09:08:33.365Z,99970.72
2019-03-03T09:11:22.170Z,99970.59
2019-03-03T09:14:10.986Z,99968.75
2019-03-03T09:16:59.139Z,99976.19
2019-03-03T09:19:47.157Z,99968.11
2019-03-03T09:22:35.260Z,99967.33
2019-03-03T09:25:24.004Z,99969.50
2019-03-03T09:28:01.221Z,99972.94
2019-03-03T09:30:42.037Z,99969.17
2019-03-03T09:33:30.224Z,99970.06
2019-03-03T09:36:18.275Z,99968.69
2019-03-03T09:39:06.457Z,99968.69
2019-03-03T09:41:55.271Z,99965.02
2019-03-03T09:44:43.368Z,99968.77
2019-03-03T09:47:32.271Z,99970.28
2019-03-03T09:50:20.368Z,99964.81
2019-03-03T09:53:08.649Z,99969.20
2019-03-03T09:55:57.486Z,99972.86
2019-03-03T09:58:45.599Z,99973.44
2019-03-03T10:01:34.409Z,99965.66
2019-03-03T10:04:23.322Z,99963.16
2019-03-03T10:07:13.574Z,99968.36
2019-03-03T10:10:01.420Z,99968.09
2019-03-03T10:12:49.442Z,99962.27
2019-03-03T10:15:38.257Z,99966.99
2019-03-03T10:18:27.156Z,99966.42
2019-03-03T10:21:16.068Z,99960.05
2019-03-03T10:24:04.935Z,99955.83
2019-03-03T10:26:53.740Z,99955.35
2019-03-03T10:29:41.755Z,99954.30
2019-03-03T10:32:29.916Z,99957.16
2019-03-03T10:35:18.715Z,99948.91
2019-03-03T10:38:07.532Z,99952.39
2019-03-03T10:40:55.563Z,99948.63
2019-03-03T10:43:43.957Z,99949.05
2019-03-03T10:46:32.090Z,99946.13
2019-03-03T10:49:20.933Z,99943.95
2019-03-03T10:52:00.001Z,99948.80
2019-03-03T10:54:42.605Z,99947.33
2019-03-03T10:57:21.788Z,99937.66
2019-03-03T11:00:09.903Z,99937.17
2019-03-03T11:02:58.928Z,99938.25
2019-03-03T11:05:47.140Z,99937.63
2019-03-03T11:08:35.340Z,99931.86
2019-03-03T11:11:39.239Z,99929.58
2019-03-03T11:14:24.005Z,99928.82
2019-03-03T11:17:12.808Z,99918.14
2019-03-03T11:20:00.913Z,99924.70
2019-03-03T11:22:49.199Z,99926.21
2019-03-03T11:25:37.304Z,99928.70
2019-03-03T11:31:08.089Z,99916.13
2019-03-03T11:33:56.297Z,99918.98
2019-03-03T11:36:32.225Z,99902.85
2019-03-03T11:39:21.278Z,99910.83
2019-03-03T11:42:09.613Z,99900.09
2019-03-03T11:44:57.728Z,99901.40
2019-03-03T11:47:45.859Z,99898.52
2019-03-03T11:50:34.865Z,99898.32
2019-03-03T11:53:23.769Z,99900.95
2019-03-03T11:56:12.624Z,99891.36
2019-03-03T11:58:48.895Z,99893.41
2019-03-03T12:01:37.156Z,99887.47
2019-03-03T12:04:26.020Z,99890.89
2019-03-03T12:07:14.191Z,99890.77
2019-03-03T12:10:03.007Z,99885.63
2019-03-03T12:12:51.200Z,99882.36
2019-03-03T12:15:29.810Z,99880.38
2019-03-03T12:18:05.607Z,99880.06
2019-03-03T12:20:54.538Z,99881.57
2019-03-03T12:23:43.405Z,99877.43
2019-03-03T12:26:32.414Z,99875.20
2019-03-03T12:29:20.686Z,99877.11
2019-03-03T12:32:08.890Z,99864.52
2019-03-03T12:34:58.190Z,99863.61
2019-03-03T12:37:47.014Z,99861.98
2019-03-03T12:40:35.816Z,99863.51
2019-03-03T12:43:23.817Z,99860.98
2019-03-03T12:46:11.943Z,99857.84
2019-03-03T12:48:51.145Z,99855.39
2019-03-03T12:51:39.949Z,99849.04
2019-03-03T12:54:28.169Z,99848.80
2019-03-03T12:57:16.965Z,99846.55
2019-03-03T13:00:05.079Z,99851.36
2019-03-03T13:02:53.290Z,99842.36
2019-03-03T13:05:41.316Z,99845.84
2019-03-03T13:08:18.992Z,99840.04
2019-03-03T13:11:07.793Z,99841.02
2019-03-03T13:13:55.903Z,99836.79
2019-03-03T13:16:44.029Z,99834.39
2019-03-03T13:19:32.847Z,99839.77
2019-03-03T13:22:20.976Z,99836.58
2019-03-03T13:25:09.951Z,99835.34
2019-03-03T13:27:58.862Z,99838.40
2019-03-03T13:30:34.193Z,99833.94
2019-03-03T13:35:55.108Z,99827.02
2019-03-03T13:38:43.906Z,99828.60
2019-03-03T13:41:31.910Z,99833.97
2019-03-03T13:44:00.690Z,99833.53
2019-03-03T13:46:30.155Z,99834.51
2019-03-03T13:48:59.490Z,99831.99
2019-03-03T13:51:28.422Z,99824.56
2019-03-03T13:53:56.964Z,99827.45
2019-03-03T13:56:26.330Z,99832.76
2019-03-03T14:01:39.060Z,99836.47
2019-03-03T14:04:08.489Z,99834.94
2019-03-03T14:06:37.062Z,99840.52
2019-03-03T14:12:09.795Z,99841.56
2019-03-03T14:14:38.439Z,99838.12
2019-03-03T14:17:08.536Z,99842.31
2019-03-03T14:19:37.927Z,99839.93
2019-03-03T14:22:07.272Z,99839.27
2019-03-03T14:24:36.655Z,99838.04
2019-03-03T14:27:10.465Z,99836.93
2019-03-03T14:29:55.245Z,99836.52
2019-03-03T14:32:24.606Z,99838.67
2019-03-03T14:34:53.972Z,99843.03
2019-03-03T14:37:22.648Z,99840.80
2019-03-03T14:40:12.549Z,99829.31
2019-03-03T14:42:42.003Z,99830.36
2019-03-03T14:45:13.143Z,99837.47
2019-03-03T14:47:41.894Z,99830.03
2019-03-03T14:50:15.254Z,99835.98
2019-03-03T14:52:45.178Z,99834.22
2019-03-03T14:55:17.308Z,99832.33
2019-03-03T14:57:46.059Z,99829.50
2019-03-03T15:00:34.746Z,99827.25
2019-03-03T15:03:05.970Z,99828.43
2019-03-03T15:05:34.822Z,99827.08
2019-03-03T15:08:03.706Z,99826.22
2019-03-03T15:10:32.326Z,99834.51
2019-03-03T15:16:04.045Z,99836.72
2019-03-03T15:18:33.384Z,99836.15
2019-03-03T15:21:02.828Z,99834.74
2019-03-03T15:23:32.181Z,99838.09
2019-03-03T15:29:04.209Z,99841.23
2019-03-03T15:34:34.961Z,99846.58
2019-03-03T15:39:44.562Z,99849.00
2019-03-03T15:42:13.215Z,99847.48
2019-03-03T15:44:42.663Z,99850.79
2019-03-03T15:47:12.016Z,99850.64
2019-03-03T15:49:41.360Z,99853.06
2019-03-03T15:52:10.685Z,99852.20
2019-03-03T15:54:39.322Z,99849.32
2019-03-03T15:57:08.856Z,99853.02
2019-03-03T15:59:37.495Z,99850.59
2019-03-03T16:05:09.868Z,99854.53
2019-03-03T16:07:39.271Z,99858.39
2019-03-03T16:10:09.594Z,99852.69
2019-03-03T16:12:39.026Z,99868.03
2019-03-03T16:15:09.284Z,99882.22
2019-03-03T16:17:37.939Z,99878.87
2019-03-03T16:23:09.404Z,99874.75
2019-03-03T16:25:59.269Z,99883.25
2019-03-03T16:28:28.592Z,99878.09
2019-03-03T16:34:00.316Z,99878.91
2019-03-03T16:36:28.959Z,99883.44
2019-03-03T16:41:59.685Z,99884.46
2019-03-03T16:44:28.252Z,99884.81
2019-03-03T16:46:57.613Z,99887.92
2019-03-03T16:49:26.951Z,99891.55
2019-03-03T16:51:56.810Z,99896.46
2019-03-03T16:54:26.147Z,99903.50
2019-03-03T16:56:55.652Z,99907.77
2019-03-03T16:59:24.207Z,99904.86
2019-03-03T17:01:53.545Z,99911.67
2019-03-03T17:04:22.908Z,99919.22
2019-03-03T17:06:52.413Z,99912.66
2019-03-03T17:09:21.074Z,99918.98
2019-03-03T17:11:50.458Z,99925.66
2019-03-03T17:14:19.014Z,99923.67
2019-03-03T17:16:48.361Z,99925.63
2019-03-03T17:19:17.697Z,99926.49
2019-03-03T17:21:47.059Z,99929.41
2019-03-03T17:24:16.406Z,99930.34
2019-03-03T17:26:45.767Z,99936.19
2019-03-03T17:29:15.202Z,99934.14
2019-03-03T17:31:43.895Z,99937.11
2019-03-03T17:34:13.454Z,99932.14
2019-03-03T17:36:41.999Z,99936.68
2019-03-03T17:39:11.532Z,99932.50
2019-03-03T17:41:40.942Z,99932.30
2019-03-03T17:44:10.286Z,99922.73
2019-03-03T17:46:39.628Z,99932.20
2019-03-03T17:49:08.981Z,99927.81
2019-03-03T17:51:38.447Z,99926.34
2019-03-03T17:54:07.799Z,99926.86
2019-03-03T17:56:37.133Z,99923.47
2019-03-03T17:59:05.781Z,99919.81
2019-03-03T18:01:34.687Z,99918.50
2019-03-03T18:04:04.183Z,99923.45
2019-03-03T18:06:38.690Z,99917.80
2019-03-03T18:09:22.840Z,99917.69
2019-03-03T18:11:52.193Z,99919.88
2019-03-03T18:14:21.532Z,99914.78
2019-03-03T18:16:51.576Z,99918.59
2019-03-03T18:19:20.933Z,99918.28
2019-03-03T18:21:50.292Z,99917.59
2019-03-03T18:24:19.010Z,99910.23
2019-03-03T18:26:47.755Z,99913.59
2019-03-03T18:29:16.540Z,99909.73
2019-03-03T18:31:45.863Z,99909.22
2019-03-03T18:34:15.215Z,99910.58
2019-03-03T18:36:44.794Z,99904.72
2019-03-03T18:39:26.249Z,99895.98
2019-03-03T18:41:54.985Z,99899.41
2019-03-03T18:44:24.469Z,99897.81
2019-03-03T18:46:53.828Z,99898.27
2019-03-03T18:49:23.807Z,99896.85
2019-03-03T18:51:53.531Z,99896.89
2019-03-03T18:54:22.877Z,99902.78
2019-03-03T18:56:52.293Z,99898.70
2019-03-03T18:59:21.639Z,99898.13
2019-03-03T19:01:51.006Z,99897.41
2019-03-03T19:04:19.751Z,99901.34
2019-03-03T19:06:48.433Z,99900.16
2019-03-03T19:12:32.722Z,99900.02
2019-03-03T19:15:02.367Z,99905.85
2019-03-03T19:17:31.739Z,99901.58
2019-03-03T19:20:00.371Z,99904.02
2019-03-03T19:22:29.060Z,99905.09
2019-03-03T19:24:58.682Z,99902.20
2019-03-03T19:27:28.030Z,99905.61
2019-03-03T19:29:57.385Z,99907.56
2019-03-03T19:32:26.723Z,99898.20
2019-03-03T19:34:56.057Z,99903.84
2019-03-03T19:37:24.711Z,99898.71
2019-03-03T19:39:54.052Z,99905.80
2019-03-03T19:42:23.417Z,99903.48
2019-03-03T19:44:52.282Z,99898.28
2019-03-03T19:47:20.930Z,99903.80
2019-03-03T19:49:50.519Z,99904.22
2019-03-03T19:52:39.611Z,99901.11
2019-03-03T19:55:09.869Z,99898.16
2019-03-03T19:57:50.851Z,99899.53
2019-03-03T20:00:22.772Z,99904.69
2019-03-03T20:02:51.509Z,99896.17
2019-03-03T20:05:20.859Z,99900.55
2019-03-03T20:07:50.308Z,99897.93
2019-03-03T20:10:19.966Z,99899.69
2019-03-03T20:15:51.635Z,99894.64
2019-03-03T20:18:21.100Z,99895.05
2019-03-03T20:20:50.449Z,99895.41
2019-03-03T20:23:19.918Z,99893.94
2019-03-03T20:25:49.268Z,99889.08
2019-03-03T20:28:18.708Z,99883.47
2019-03-03T20:33:27.561Z,99880.33
2019-03-03T20:35:56.872Z,99881.36
2019-03-03T20:38:25.524Z,99885.00
2019-03-03T20:40:54.982Z,99880.82
2019-03-03T20:43:23.626Z,99883.09
2019-03-03T20:45:53.273Z,99881.78
2019-03-03T20:48:22.720Z,99878.78
2019-03-03T20:50:52.192Z,99877.11
2019-03-03T20:53:20.825Z,99872.29
2019-03-03T20:55:50.189Z,99876.70
2019-03-03T20:58:19.535Z,99880.44
2019-03-03T21:00:49.182Z,99875.48
2019-03-03T21:03:17.812Z,99870.99
2019-03-03T21:05:46.461Z,99864.89
2019-03-03T21:08:15.091Z,99864.28
2019-03-03T21:10:44.417Z,99866.04
2019-03-03T21:13:13.838Z,99870.92
2019-03-03T21:15:43.136Z,99869.80
2019-03-03T21:18:11.778Z,99867.70
2019-03-03T21:20:41.111Z,99861.38
2019-03-03T21:23:13.331Z,99859.02
2019-03-03T21:25:42.862Z,99856.95
2019-03-03T21:28:12.196Z,99852.66
2019-03-03T21:30:40.736Z,99854.27
2019-03-03T21:33:10.088Z,99848.14
2019-03-03T21:35:38.633Z,99854.27
2019-03-03T21:38:07.251Z,99862.98
2019-03-03T21:40:36.602Z,99853.31
2019-03-03T21:43:05.980Z,99851.45
2019-03-03T21:45:35.335Z,99849.57
2019-03-03T21:50:47.494Z,99851.20
2019-03-03T21:53:16.824Z,99843.73
2019-03-03T21:55:45.561Z,99841.19
2019-03-03T21:58:14.897Z,99848.97
2019-03-03T22:00:44.450Z,99846.38
2019-03-03T22:03:13.796Z,99844.59
2019-03-03T22:05:43.150Z,99841.76
2019-03-03T22:08:12.587Z,99842.45
2019-03-03T22:10:41.943Z,99836.70
2019-03-03T22:13:11.735Z,99837.09
2019-03-03T22:15:40.376Z,99835.28
2019-03-03T22:18:09.805Z,99836.53
2019-03-03T22:20:39.242Z,99839.48
2019-03-03T22:23:08.575Z,99837.06
2019-03-03T22:25:38.179Z,99836.11
2019-03-03T22:28:07.509Z,99831.16
2019-03-03T22:30:36.830Z,99829.98
2019-03-03T22:33:06.175Z,99832.89
2019-03-03T22:35:35.513Z,99828.45
2019-03-03T22:38:04.850Z,99824.17
2019-03-03T22:40:33.482Z,99824.53
2019-03-03T22:43:02.150Z,99830.17
2019-03-03T22:45:31.503Z,99831.55
2019-03-03T22:48:00.816Z,99836.30
2019-03-03T22:50:44.563Z,99836.70
2019-03-03T22:53:19.959Z,99825.55
2019-03-03T22:55:49.300Z,99822.23
2019-03-03T22:58:18.637Z,99823.06
2019-03-03T23:01:17.442Z,99824.43
2019-03-03T23:04:24.823Z,99827.55
2019-03-03T23:07:08.481Z,99819.63
2019-03-03T23:10:10.544Z,99824.52
2019-03-03T23:13:04.417Z,99824.38
2019-03-03T23:16:11.834Z,99820.61
2019-03-03T23:19:22.399Z,99816.97
2019-03-03T23:22:30.527Z,99818.22
2019-03-03T23:25:38.625Z,99820.49
2019-03-03T23:28:07.971Z,99814.56
2019-03-03T23:30:36.619Z,99809.05
2019-03-03T23:33:05.945Z,99804.91
2019-03-03T23:35:35.299Z,99806.61
2019-03-03T23:38:04.639Z,99813.86
2019-03-03T23:40:33.993Z,99816.67
2019-03-03T23:43:03.460Z,99816.34
2019-03-03T23:45:32.799Z,99810.82
2019-03-03T23:48:02.146Z,99809.05
2019-03-03T23:50:32.615Z,99815.91
2019-03-03T23:53:01.236Z,99814.09
2019-03-03T23:55:29.873Z,99818.06
2019-03-03T23:57:58.788Z,99812.76
